sensor_id;sensor_type;location;lat;lon;timestamp;P1;durP1;ratioP1;P2;durP2;ratioP2
71303;SDS011;59091;47.446;19.148;2023-06-22T00:01:49;14.10;;;5.25;;
71303;SDS011;59091;47.446;19.148;2023-06-22T00:04:15;11.35;;;5.38;;
71303;SDS011;59091;47.446;19.148;2023-06-22T00:06:40;12.05;;;4.97;;
71303;SDS011;59091;47.446;19.148;2023-06-22T00:09:06;10.10;;;5.55;;
71303;SDS011;59091;47.446;19.148;2023-06-22T00:11:32;7.10;;;4.53;;
71303;SDS011;59091;47.446;19.148;2023-06-22T00:13:58;8.15;;;4.78;;
71303;SDS011;59091;47.446;19.148;2023-06-22T00:16:27;9.82;;;4.90;;
71303;SDS011;59091;47.446;19.148;2023-06-22T00:18:52;10.90;;;5.03;;
71303;SDS011;59091;47.446;19.148;2023-06-22T00:21:18;10.30;;;5.25;;
71303;SDS011;59091;47.446;19.148;2023-06-22T00:23:45;10.15;;;5.18;;
71303;SDS011;59091;47.446;19.148;2023-06-22T00:26:12;11.63;;;5.30;;
71303;SDS011;59091;47.446;19.148;2023-06-22T00:28:38;8.65;;;5.00;;
71303;SDS011;59091;47.446;19.148;2023-06-22T00:31:03;9.80;;;5.35;;
71303;SDS011;59091;47.446;19.148;2023-06-22T00:33:29;11.55;;;5.40;;
71303;SDS011;59091;47.446;19.148;2023-06-22T00:35:54;9.05;;;5.10;;
71303;SDS011;59091;47.446;19.148;2023-06-22T00:38:20;14.07;;;4.90;;
71303;SDS011;59091;47.446;19.148;2023-06-22T00:40:45;8.73;;;4.85;;
71303;SDS011;59091;47.446;19.148;2023-06-22T00:43:11;11.40;;;4.75;;
71303;SDS011;59091;47.446;19.148;2023-06-22T00:45:36;11.20;;;4.95;;
71303;SDS011;59091;47.446;19.148;2023-06-22T00:48:03;10.30;;;4.90;;
71303;SDS011;59091;47.446;19.148;2023-06-22T00:50:30;11.65;;;5.32;;
71303;SDS011;59091;47.446;19.148;2023-06-22T00:52:59;9.27;;;4.80;;
71303;SDS011;59091;47.446;19.148;2023-06-22T00:55:33;11.38;;;5.15;;
71303;SDS011;59091;47.446;19.148;2023-06-22T00:58:02;9.77;;;5.15;;
71303;SDS011;59091;47.446;19.148;2023-06-22T01:00:32;9.23;;;4.90;;
71303;SDS011;59091;47.446;19.148;2023-06-22T01:02:58;10.02;;;5.32;;
71303;SDS011;59091;47.446;19.148;2023-06-22T01:05:24;11.15;;;5.07;;
71303;SDS011;59091;47.446;19.148;2023-06-22T01:07:54;7.55;;;5.10;;
71303;SDS011;59091;47.446;19.148;2023-06-22T01:13:16;11.32;;;5.60;;
71303;SDS011;59091;47.446;19.148;2023-06-22T01:15:57;14.20;;;4.70;;
71303;SDS011;59091;47.446;19.148;2023-06-22T01:18:27;10.55;;;4.88;;
71303;SDS011;59091;47.446;19.148;2023-06-22T01:20:55;10.98;;;5.13;;
71303;SDS011;59091;47.446;19.148;2023-06-22T01:28:43;12.60;;;5.35;;
71303;SDS011;59091;47.446;19.148;2023-06-22T01:31:12;9.23;;;5.20;;
71303;SDS011;59091;47.446;19.148;2023-06-22T01:33:41;7.97;;;5.30;;
71303;SDS011;59091;47.446;19.148;2023-06-22T01:36:09;7.07;;;4.60;;
71303;SDS011;59091;47.446;19.148;2023-06-22T01:38:36;9.70;;;5.28;;
71303;SDS011;59091;47.446;19.148;2023-06-22T01:41:03;13.02;;;5.38;;
71303;SDS011;59091;47.446;19.148;2023-06-22T01:43:29;13.85;;;5.55;;
71303;SDS011;59091;47.446;19.148;2023-06-22T01:45:55;7.70;;;5.45;;
71303;SDS011;59091;47.446;19.148;2023-06-22T01:48:22;11.25;;;5.70;;
71303;SDS011;59091;47.446;19.148;2023-06-22T01:50:48;13.85;;;6.10;;
71303;SDS011;59091;47.446;19.148;2023-06-22T01:53:14;10.52;;;6.22;;
71303;SDS011;59091;47.446;19.148;2023-06-22T01:55:40;10.95;;;5.53;;
71303;SDS011;59091;47.446;19.148;2023-06-22T01:58:05;12.18;;;5.63;;
71303;SDS011;59091;47.446;19.148;2023-06-22T02:00:35;9.60;;;5.53;;
71303;SDS011;59091;47.446;19.148;2023-06-22T02:03:05;12.45;;;6.30;;
71303;SDS011;59091;47.446;19.148;2023-06-22T02:05:36;11.95;;;6.13;;
71303;SDS011;59091;47.446;19.148;2023-06-22T02:08:08;11.20;;;5.75;;
71303;SDS011;59091;47.446;19.148;2023-06-22T02:10:37;10.57;;;5.75;;
71303;SDS011;59091;47.446;19.148;2023-06-22T02:13:06;14.15;;;6.50;;
71303;SDS011;59091;47.446;19.148;2023-06-22T02:15:34;13.90;;;5.78;;
71303;SDS011;59091;47.446;19.148;2023-06-22T02:17:59;10.25;;;5.90;;
71303;SDS011;59091;47.446;19.148;2023-06-22T02:20:25;10.60;;;6.63;;
71303;SDS011;59091;47.446;19.148;2023-06-22T02:22:51;9.75;;;5.80;;
71303;SDS011;59091;47.446;19.148;2023-06-22T02:25:16;11.38;;;5.82;;
71303;SDS011;59091;47.446;19.148;2023-06-22T02:27:42;11.30;;;6.00;;
71303;SDS011;59091;47.446;19.148;2023-06-22T02:30:08;10.60;;;5.93;;
71303;SDS011;59091;47.446;19.148;2023-06-22T02:32:34;10.10;;;5.38;;
71303;SDS011;59091;47.446;19.148;2023-06-22T02:35:00;10.15;;;5.85;;
71303;SDS011;59091;47.446;19.148;2023-06-22T02:37:29;11.40;;;5.90;;
71303;SDS011;59091;47.446;19.148;2023-06-22T02:39:54;14.57;;;6.38;;
71303;SDS011;59091;47.446;19.148;2023-06-22T02:42:20;12.40;;;6.45;;
71303;SDS011;59091;47.446;19.148;2023-06-22T02:44:46;10.30;;;6.10;;
71303;SDS011;59091;47.446;19.148;2023-06-22T02:47:12;12.75;;;6.22;;
71303;SDS011;59091;47.446;19.148;2023-06-22T02:49:38;9.23;;;5.90;;
71303;SDS011;59091;47.446;19.148;2023-06-22T02:52:03;15.05;;;5.82;;
71303;SDS011;59091;47.446;19.148;2023-06-22T02:54:29;11.10;;;5.43;;
71303;SDS011;59091;47.446;19.148;2023-06-22T02:56:54;8.23;;;5.55;;
71303;SDS011;59091;47.446;19.148;2023-06-22T02:59:20;10.95;;;5.97;;
71303;SDS011;59091;47.446;19.148;2023-06-22T03:01:49;11.98;;;5.80;;
71303;SDS011;59091;47.446;19.148;2023-06-22T03:04:15;8.52;;;5.78;;
71303;SDS011;59091;47.446;19.148;2023-06-22T03:06:41;14.02;;;6.15;;
71303;SDS011;59091;47.446;19.148;2023-06-22T03:09:06;12.65;;;6.45;;
71303;SDS011;59091;47.446;19.148;2023-06-22T03:11:32;12.13;;;6.70;;
71303;SDS011;59091;47.446;19.148;2023-06-22T03:13:59;15.13;;;7.15;;
71303;SDS011;59091;47.446;19.148;2023-06-22T03:16:25;12.00;;;5.78;;
71303;SDS011;59091;47.446;19.148;2023-06-22T03:18:50;13.13;;;6.40;;
71303;SDS011;59091;47.446;19.148;2023-06-22T03:21:16;11.50;;;6.53;;
71303;SDS011;59091;47.446;19.148;2023-06-22T03:23:42;11.27;;;6.10;;
71303;SDS011;59091;47.446;19.148;2023-06-22T03:26:08;12.50;;;6.32;;
71303;SDS011;59091;47.446;19.148;2023-06-22T03:28:35;10.75;;;6.22;;
71303;SDS011;59091;47.446;19.148;2023-06-22T03:31:00;16.67;;;5.97;;
71303;SDS011;59091;47.446;19.148;2023-06-22T03:33:26;9.60;;;5.82;;
71303;SDS011;59091;47.446;19.148;2023-06-22T03:35:51;14.15;;;6.38;;
71303;SDS011;59091;47.446;19.148;2023-06-22T03:38:17;10.43;;;5.72;;
71303;SDS011;59091;47.446;19.148;2023-06-22T03:40:42;10.35;;;6.10;;
71303;SDS011;59091;47.446;19.148;2023-06-22T03:43:08;7.85;;;5.88;;
71303;SDS011;59091;47.446;19.148;2023-06-22T03:45:33;8.68;;;5.80;;
71303;SDS011;59091;47.446;19.148;2023-06-22T03:48:00;9.52;;;5.95;;
71303;SDS011;59091;47.446;19.148;2023-06-22T03:50:26;9.60;;;5.90;;
71303;SDS011;59091;47.446;19.148;2023-06-22T03:52:52;10.52;;;5.50;;
71303;SDS011;59091;47.446;19.148;2023-06-22T03:55:19;13.20;;;5.93;;
71303;SDS011;59091;47.446;19.148;2023-06-22T03:57:45;11.65;;;5.40;;
71303;SDS011;59091;47.446;19.148;2023-06-22T04:00:11;10.82;;;5.97;;
71303;SDS011;59091;47.446;19.148;2023-06-22T04:02:37;16.10;;;6.25;;
71303;SDS011;59091;47.446;19.148;2023-06-22T04:05:02;12.57;;;6.40;;
71303;SDS011;59091;47.446;19.148;2023-06-22T04:07:27;9.88;;;6.25;;
71303;SDS011;59091;47.446;19.148;2023-06-22T04:09:53;10.80;;;6.15;;
71303;SDS011;59091;47.446;19.148;2023-06-22T04:12:18;11.93;;;6.90;;
71303;SDS011;59091;47.446;19.148;2023-06-22T04:14:44;11.88;;;5.57;;
71303;SDS011;59091;47.446;19.148;2023-06-22T04:17:09;8.93;;;6.00;;
71303;SDS011;59091;47.446;19.148;2023-06-22T04:19:35;12.60;;;7.15;;
71303;SDS011;59091;47.446;19.148;2023-06-22T04:22:00;15.68;;;6.80;;
71303;SDS011;59091;47.446;19.148;2023-06-22T04:24:26;14.32;;;7.85;;
71303;SDS011;59091;47.446;19.148;2023-06-22T04:26:51;17.90;;;7.95;;
71303;SDS011;59091;47.446;19.148;2023-06-22T04:29:19;17.80;;;8.65;;
71303;SDS011;59091;47.446;19.148;2023-06-22T04:31:45;11.77;;;7.10;;
71303;SDS011;59091;47.446;19.148;2023-06-22T04:34:15;13.48;;;5.88;;
71303;SDS011;59091;47.446;19.148;2023-06-22T04:36:41;13.50;;;5.78;;
71303;SDS011;59091;47.446;19.148;2023-06-22T04:39:10;14.27;;;6.00;;
71303;SDS011;59091;47.446;19.148;2023-06-22T04:41:39;18.15;;;6.28;;
71303;SDS011;59091;47.446;19.148;2023-06-22T04:46:35;9.98;;;6.80;;
71303;SDS011;59091;47.446;19.148;2023-06-22T04:49:06;11.05;;;6.80;;
71303;SDS011;59091;47.446;19.148;2023-06-22T04:51:39;15.32;;;8.63;;
71303;SDS011;59091;47.446;19.148;2023-06-22T04:54:06;62.30;;;21.33;;
71303;SDS011;59091;47.446;19.148;2023-06-22T04:56:32;35.33;;;14.52;;
71303;SDS011;59091;47.446;19.148;2023-06-22T04:58:57;58.30;;;17.42;;
71303;SDS011;59091;47.446;19.148;2023-06-22T05:01:23;34.35;;;14.23;;
71303;SDS011;59091;47.446;19.148;2023-06-22T05:03:50;32.60;;;13.60;;
71303;SDS011;59091;47.446;19.148;2023-06-22T05:06:16;28.52;;;12.30;;
71303;SDS011;59091;47.446;19.148;2023-06-22T05:08:42;15.85;;;8.70;;
71303;SDS011;59091;47.446;19.148;2023-06-22T05:11:08;17.65;;;8.50;;
71303;SDS011;59091;47.446;19.148;2023-06-22T05:13:34;27.27;;;9.07;;
71303;SDS011;59091;47.446;19.148;2023-06-22T05:15:59;22.15;;;8.55;;
71303;SDS011;59091;47.446;19.148;2023-06-22T05:18:28;31.83;;;10.38;;
71303;SDS011;59091;47.446;19.148;2023-06-22T05:20:55;25.52;;;9.10;;
71303;SDS011;59091;47.446;19.148;2023-06-22T05:23:20;34.28;;;8.63;;
71303;SDS011;59091;47.446;19.148;2023-06-22T05:25:46;26.33;;;9.73;;
71303;SDS011;59091;47.446;19.148;2023-06-22T05:28:11;22.50;;;9.57;;
71303;SDS011;59091;47.446;19.148;2023-06-22T05:30:37;25.65;;;8.98;;
71303;SDS011;59091;47.446;19.148;2023-06-22T05:33:03;21.73;;;9.85;;
71303;SDS011;59091;47.446;19.148;2023-06-22T05:35:28;18.85;;;8.52;;
71303;SDS011;59091;47.446;19.148;2023-06-22T05:37:54;19.48;;;9.35;;
71303;SDS011;59091;47.446;19.148;2023-06-22T05:40:20;28.05;;;9.18;;
71303;SDS011;59091;47.446;19.148;2023-06-22T05:42:46;22.83;;;9.60;;
71303;SDS011;59091;47.446;19.148;2023-06-22T05:45:11;26.52;;;10.18;;
71303;SDS011;59091;47.446;19.148;2023-06-22T05:47:37;19.38;;;8.43;;
71303;SDS011;59091;47.446;19.148;2023-06-22T05:50:02;22.40;;;10.20;;
71303;SDS011;59091;47.446;19.148;2023-06-22T05:52:31;21.60;;;9.13;;
71303;SDS011;59091;47.446;19.148;2023-06-22T05:54:57;17.75;;;7.75;;
71303;SDS011;59091;47.446;19.148;2023-06-22T05:57:23;20.35;;;7.57;;
71303;SDS011;59091;47.446;19.148;2023-06-22T05:59:48;19.25;;;7.68;;
71303;SDS011;59091;47.446;19.148;2023-06-22T06:02:14;14.10;;;6.95;;
71303;SDS011;59091;47.446;19.148;2023-06-22T06:04:39;12.88;;;6.05;;
71303;SDS011;59091;47.446;19.148;2023-06-22T06:07:04;17.70;;;6.88;;
71303;SDS011;59091;47.446;19.148;2023-06-22T06:09:30;17.08;;;6.05;;
71303;SDS011;59091;47.446;19.148;2023-06-22T06:11:55;17.42;;;6.30;;
71303;SDS011;59091;47.446;19.148;2023-06-22T06:14:21;12.48;;;5.80;;
71303;SDS011;59091;47.446;19.148;2023-06-22T06:16:48;11.57;;;5.93;;
71303;SDS011;59091;47.446;19.148;2023-06-22T06:19:14;14.20;;;6.15;;
71303;SDS011;59091;47.446;19.148;2023-06-22T06:21:39;16.15;;;6.40;;
71303;SDS011;59091;47.446;19.148;2023-06-22T06:24:05;14.60;;;6.28;;
71303;SDS011;59091;47.446;19.148;2023-06-22T06:26:30;13.05;;;5.95;;
71303;SDS011;59091;47.446;19.148;2023-06-22T06:28:58;14.93;;;5.47;;
71303;SDS011;59091;47.446;19.148;2023-06-22T06:31:25;12.55;;;4.57;;
71303;SDS011;59091;47.446;19.148;2023-06-22T06:33:53;14.93;;;5.00;;
71303;SDS011;59091;47.446;19.148;2023-06-22T06:36:19;16.50;;;4.78;;
71303;SDS011;59091;47.446;19.148;2023-06-22T06:38:45;13.18;;;4.53;;
71303;SDS011;59091;47.446;19.148;2023-06-22T06:41:13;11.25;;;4.70;;
71303;SDS011;59091;47.446;19.148;2023-06-22T06:43:38;10.23;;;3.95;;
71303;SDS011;59091;47.446;19.148;2023-06-22T06:46:04;12.40;;;4.20;;
71303;SDS011;59091;47.446;19.148;2023-06-22T06:48:29;12.60;;;4.60;;
71303;SDS011;59091;47.446;19.148;2023-06-22T06:50:55;12.73;;;4.22;;
71303;SDS011;59091;47.446;19.148;2023-06-22T06:53:20;10.02;;;4.45;;
71303;SDS011;59091;47.446;19.148;2023-06-22T06:55:46;14.25;;;4.47;;
71303;SDS011;59091;47.446;19.148;2023-06-22T06:58:11;13.02;;;4.47;;
71303;SDS011;59091;47.446;19.148;2023-06-22T07:00:38;10.98;;;3.78;;
71303;SDS011;59091;47.446;19.148;2023-06-22T07:03:04;13.80;;;3.78;;
71303;SDS011;59091;47.446;19.148;2023-06-22T07:05:30;7.85;;;3.60;;
71303;SDS011;59091;47.446;19.148;2023-06-22T07:07:55;8.48;;;3.53;;
71303;SDS011;59091;47.446;19.148;2023-06-22T07:10:21;14.43;;;4.50;;
71303;SDS011;59091;47.446;19.148;2023-06-22T07:12:46;13.65;;;3.80;;
71303;SDS011;59091;47.446;19.148;2023-06-22T07:15:12;10.15;;;4.22;;
71303;SDS011;59091;47.446;19.148;2023-06-22T07:17:38;13.82;;;4.00;;
71303;SDS011;59091;47.446;19.148;2023-06-22T07:20:06;12.85;;;3.97;;
71303;SDS011;59091;47.446;19.148;2023-06-22T07:22:41;10.68;;;4.15;;
71303;SDS011;59091;47.446;19.148;2023-06-22T07:25:09;15.57;;;4.15;;
71303;SDS011;59091;47.446;19.148;2023-06-22T07:27:38;12.82;;;3.90;;
71303;SDS011;59091;47.446;19.148;2023-06-22T07:30:08;11.27;;;4.05;;
71303;SDS011;59091;47.446;19.148;2023-06-22T07:32:34;14.52;;;4.30;;
71303;SDS011;59091;47.446;19.148;2023-06-22T07:35:00;12.70;;;3.83;;
71303;SDS011;59091;47.446;19.148;2023-06-22T07:37:26;14.32;;;4.50;;
71303;SDS011;59091;47.446;19.148;2023-06-22T07:39:56;8.80;;;3.83;;
71303;SDS011;59091;47.446;19.148;2023-06-22T07:42:27;10.02;;;3.70;;
71303;SDS011;59091;47.446;19.148;2023-06-22T07:44:54;14.60;;;4.30;;
71303;SDS011;59091;47.446;19.148;2023-06-22T07:47:20;11.00;;;3.92;;
71303;SDS011;59091;47.446;19.148;2023-06-22T07:49:50;15.95;;;3.90;;
71303;SDS011;59091;47.446;19.148;2023-06-22T07:52:15;10.40;;;4.35;;
71303;SDS011;59091;47.446;19.148;2023-06-22T07:54:41;8.20;;;3.80;;
71303;SDS011;59091;47.446;19.148;2023-06-22T07:57:06;13.68;;;4.03;;
71303;SDS011;59091;47.446;19.148;2023-06-22T07:59:32;9.57;;;4.15;;
71303;SDS011;59091;47.446;19.148;2023-06-22T08:01:57;12.25;;;4.43;;
71303;SDS011;59091;47.446;19.148;2023-06-22T08:04:23;8.13;;;4.15;;
71303;SDS011;59091;47.446;19.148;2023-06-22T08:06:48;13.52;;;4.40;;
71303;SDS011;59091;47.446;19.148;2023-06-22T08:09:14;13.23;;;4.63;;
71303;SDS011;59091;47.446;19.148;2023-06-22T08:11:39;7.47;;;4.10;;
71303;SDS011;59091;47.446;19.148;2023-06-22T08:14:05;14.40;;;5.00;;
71303;SDS011;59091;47.446;19.148;2023-06-22T08:16:30;12.70;;;4.22;;
71303;SDS011;59091;47.446;19.148;2023-06-22T08:18:56;16.65;;;4.35;;
71303;SDS011;59091;47.446;19.148;2023-06-22T08:21:21;11.23;;;4.78;;
71303;SDS011;59091;47.446;19.148;2023-06-22T08:23:47;14.52;;;4.40;;
71303;SDS011;59091;47.446;19.148;2023-06-22T08:26:14;8.77;;;4.35;;
71303;SDS011;59091;47.446;19.148;2023-06-22T08:28:39;9.00;;;4.50;;
71303;SDS011;59091;47.446;19.148;2023-06-22T08:31:05;11.38;;;4.78;;
71303;SDS011;59091;47.446;19.148;2023-06-22T08:33:30;11.27;;;4.63;;
71303;SDS011;59091;47.446;19.148;2023-06-22T08:35:56;10.45;;;5.50;;
71303;SDS011;59091;47.446;19.148;2023-06-22T08:38:23;12.32;;;4.88;;
71303;SDS011;59091;47.446;19.148;2023-06-22T08:40:48;15.00;;;4.78;;
71303;SDS011;59091;47.446;19.148;2023-06-22T08:43:14;15.93;;;5.30;;
71303;SDS011;59091;47.446;19.148;2023-06-22T08:45:39;12.13;;;5.80;;
71303;SDS011;59091;47.446;19.148;2023-06-22T08:48:05;9.80;;;4.97;;
71303;SDS011;59091;47.446;19.148;2023-06-22T08:50:30;14.00;;;5.05;;
71303;SDS011;59091;47.446;19.148;2023-06-22T08:52:56;15.75;;;5.70;;
71303;SDS011;59091;47.446;19.148;2023-06-22T08:55:21;10.73;;;4.80;;
71303;SDS011;59091;47.446;19.148;2023-06-22T08:57:47;10.98;;;5.05;;
71303;SDS011;59091;47.446;19.148;2023-06-22T09:00:12;10.82;;;5.35;;
71303;SDS011;59091;47.446;19.148;2023-06-22T09:02:43;7.03;;;4.80;;
71303;SDS011;59091;47.446;19.148;2023-06-22T09:05:09;7.38;;;5.00;;
71303;SDS011;59091;47.446;19.148;2023-06-22T09:07:34;10.07;;;5.07;;
71303;SDS011;59091;47.446;19.148;2023-06-22T09:10:00;12.25;;;5.40;;
71303;SDS011;59091;47.446;19.148;2023-06-22T09:12:25;8.38;;;5.53;;
71303;SDS011;59091;47.446;19.148;2023-06-22T09:14:52;10.80;;;5.80;;
71303;SDS011;59091;47.446;19.148;2023-06-22T09:17:18;13.52;;;5.57;;
71303;SDS011;59091;47.446;19.148;2023-06-22T09:19:44;13.77;;;5.70;;
71303;SDS011;59091;47.446;19.148;2023-06-22T09:22:09;8.15;;;5.20;;
71303;SDS011;59091;47.446;19.148;2023-06-22T09:24:35;9.75;;;5.75;;
71303;SDS011;59091;47.446;19.148;2023-06-22T09:27:00;12.27;;;5.47;;
71303;SDS011;59091;47.446;19.148;2023-06-22T09:29:26;15.80;;;5.72;;
71303;SDS011;59091;47.446;19.148;2023-06-22T09:31:51;13.05;;;5.75;;
71303;SDS011;59091;47.446;19.148;2023-06-22T09:34:18;12.98;;;6.28;;
71303;SDS011;59091;47.446;19.148;2023-06-22T09:36:47;11.20;;;5.75;;
71303;SDS011;59091;47.446;19.148;2023-06-22T09:39:13;12.05;;;5.68;;
71303;SDS011;59091;47.446;19.148;2023-06-22T09:41:38;12.98;;;5.47;;
71303;SDS011;59091;47.446;19.148;2023-06-22T09:44:04;9.65;;;6.00;;
71303;SDS011;59091;47.446;19.148;2023-06-22T09:46:29;12.02;;;5.50;;
71303;SDS011;59091;47.446;19.148;2023-06-22T09:48:55;10.32;;;6.53;;
71303;SDS011;59091;47.446;19.148;2023-06-22T09:51:21;12.80;;;5.65;;
71303;SDS011;59091;47.446;19.148;2023-06-22T09:53:48;16.50;;;6.50;;
71303;SDS011;59091;47.446;19.148;2023-06-22T09:56:14;13.15;;;6.45;;
71303;SDS011;59091;47.446;19.148;2023-06-22T09:58:43;9.90;;;6.68;;
71303;SDS011;59091;47.446;19.148;2023-06-22T10:01:10;13.52;;;6.18;;
71303;SDS011;59091;47.446;19.148;2023-06-22T10:03:35;9.48;;;6.38;;
71303;SDS011;59091;47.446;19.148;2023-06-22T10:06:01;13.73;;;6.32;;
71303;SDS011;59091;47.446;19.148;2023-06-22T10:08:27;12.35;;;6.20;;
71303;SDS011;59091;47.446;19.148;2023-06-22T10:10:52;10.52;;;5.90;;
71303;SDS011;59091;47.446;19.148;2023-06-22T10:13:18;12.10;;;6.10;;
71303;SDS011;59091;47.446;19.148;2023-06-22T10:15:44;9.23;;;5.78;;
71303;SDS011;59091;47.446;19.148;2023-06-22T10:18:15;12.73;;;6.03;;
71303;SDS011;59091;47.446;19.148;2023-06-22T10:20:41;7.80;;;6.22;;
71303;SDS011;59091;47.446;19.148;2023-06-22T10:23:15;10.68;;;6.15;;
71303;SDS011;59091;47.446;19.148;2023-06-22T10:25:46;12.43;;;6.05;;
71303;SDS011;59091;47.446;19.148;2023-06-22T10:28:12;11.38;;;5.97;;
71303;SDS011;59091;47.446;19.148;2023-06-22T10:30:38;13.00;;;6.07;;
71303;SDS011;59091;47.446;19.148;2023-06-22T10:33:06;15.02;;;6.25;;
71303;SDS011;59091;47.446;19.148;2023-06-22T10:35:32;11.30;;;5.85;;
71303;SDS011;59091;47.446;19.148;2023-06-22T10:37:58;15.27;;;6.15;;
71303;SDS011;59091;47.446;19.148;2023-06-22T10:40:23;9.75;;;6.05;;
71303;SDS011;59091;47.446;19.148;2023-06-22T10:42:48;10.20;;;5.55;;
71303;SDS011;59091;47.446;19.148;2023-06-22T10:45:15;11.45;;;6.65;;
71303;SDS011;59091;47.446;19.148;2023-06-22T10:47:42;9.48;;;5.80;;
71303;SDS011;59091;47.446;19.148;2023-06-22T10:50:07;13.07;;;6.53;;
71303;SDS011;59091;47.446;19.148;2023-06-22T10:52:33;10.25;;;6.32;;
71303;SDS011;59091;47.446;19.148;2023-06-22T10:54:58;11.35;;;6.03;;
71303;SDS011;59091;47.446;19.148;2023-06-22T10:57:24;10.35;;;6.45;;
71303;SDS011;59091;47.446;19.148;2023-06-22T10:59:49;19.63;;;6.03;;
71303;SDS011;59091;47.446;19.148;2023-06-22T11:02:15;7.07;;;5.70;;
71303;SDS011;59091;47.446;19.148;2023-06-22T11:04:40;10.98;;;6.22;;
71303;SDS011;59091;47.446;19.148;2023-06-22T11:07:06;12.00;;;6.38;;
71303;SDS011;59091;47.446;19.148;2023-06-22T11:09:31;11.02;;;6.53;;
71303;SDS011;59091;47.446;19.148;2023-06-22T11:11:57;11.65;;;6.20;;
71303;SDS011;59091;47.446;19.148;2023-06-22T11:14:24;11.57;;;6.68;;
71303;SDS011;59091;47.446;19.148;2023-06-22T11:16:49;9.68;;;5.93;;
71303;SDS011;59091;47.446;19.148;2023-06-22T11:19:15;13.25;;;5.93;;
71303;SDS011;59091;47.446;19.148;2023-06-22T11:21:40;10.98;;;6.32;;
71303;SDS011;59091;47.446;19.148;2023-06-22T11:24:06;10.00;;;6.10;;
71303;SDS011;59091;47.446;19.148;2023-06-22T11:26:31;8.35;;;6.03;;
71303;SDS011;59091;47.446;19.148;2023-06-22T11:28:57;11.18;;;6.30;;
71303;SDS011;59091;47.446;19.148;2023-06-22T11:31:23;12.77;;;6.55;;
71303;SDS011;59091;47.446;19.148;2023-06-22T11:33:49;12.10;;;6.60;;
71303;SDS011;59091;47.446;19.148;2023-06-22T11:36:14;11.70;;;6.70;;
71303;SDS011;59091;47.446;19.148;2023-06-22T11:38:40;11.15;;;5.97;;
71303;SDS011;59091;47.446;19.148;2023-06-22T11:41:06;8.85;;;6.15;;
71303;SDS011;59091;47.446;19.148;2023-06-22T11:43:32;11.35;;;6.07;;
71303;SDS011;59091;47.446;19.148;2023-06-22T11:45:58;15.32;;;6.40;;
71303;SDS011;59091;47.446;19.148;2023-06-22T11:48:24;14.25;;;6.22;;
71303;SDS011;59091;47.446;19.148;2023-06-22T11:50:49;9.27;;;6.05;;
71303;SDS011;59091;47.446;19.148;2023-06-22T11:53:15;8.43;;;6.28;;
71303;SDS011;59091;47.446;19.148;2023-06-22T11:55:42;8.90;;;5.80;;
71303;SDS011;59091;47.446;19.148;2023-06-22T11:58:08;14.82;;;6.22;;
71303;SDS011;59091;47.446;19.148;2023-06-22T12:00:33;13.75;;;6.07;;
71303;SDS011;59091;47.446;19.148;2023-06-22T12:02:59;12.20;;;6.03;;
71303;SDS011;59091;47.446;19.148;2023-06-22T12:05:24;14.35;;;6.00;;
71303;SDS011;59091;47.446;19.148;2023-06-22T12:07:50;15.23;;;6.53;;
71303;SDS011;59091;47.446;19.148;2023-06-22T12:10:18;15.43;;;6.65;;
71303;SDS011;59091;47.446;19.148;2023-06-22T12:12:44;8.88;;;5.93;;
71303;SDS011;59091;47.446;19.148;2023-06-22T12:15:09;13.60;;;6.40;;
71303;SDS011;59091;47.446;19.148;2023-06-22T12:17:35;11.60;;;6.25;;
71303;SDS011;59091;47.446;19.148;2023-06-22T12:20:01;14.82;;;6.10;;
71303;SDS011;59091;47.446;19.148;2023-06-22T12:22:30;8.70;;;6.00;;
71303;SDS011;59091;47.446;19.148;2023-06-22T12:24:56;8.25;;;5.90;;
71303;SDS011;59091;47.446;19.148;2023-06-22T12:27:21;9.55;;;6.03;;
71303;SDS011;59091;47.446;19.148;2023-06-22T12:29:47;15.32;;;6.80;;
71303;SDS011;59091;47.446;19.148;2023-06-22T12:32:13;10.57;;;6.07;;
71303;SDS011;59091;47.446;19.148;2023-06-22T12:34:39;9.82;;;6.03;;
71303;SDS011;59091;47.446;19.148;2023-06-22T12:37:06;8.95;;;5.72;;
71303;SDS011;59091;47.446;19.148;2023-06-22T12:39:32;10.77;;;6.63;;
71303;SDS011;59091;47.446;19.148;2023-06-22T12:41:57;8.13;;;5.90;;
71303;SDS011;59091;47.446;19.148;2023-06-22T12:44:23;10.65;;;6.20;;
71303;SDS011;59091;47.446;19.148;2023-06-22T12:46:48;11.07;;;5.93;;
71303;SDS011;59091;47.446;19.148;2023-06-22T12:49:14;11.70;;;6.07;;
71303;SDS011;59091;47.446;19.148;2023-06-22T12:51:40;11.13;;;6.38;;
71303;SDS011;59091;47.446;19.148;2023-06-22T12:54:10;14.43;;;6.05;;
71303;SDS011;59091;47.446;19.148;2023-06-22T12:56:36;11.68;;;5.75;;
71303;SDS011;59091;47.446;19.148;2023-06-22T12:59:02;6.53;;;5.60;;
71303;SDS011;59091;47.446;19.148;2023-06-22T13:01:29;8.77;;;5.78;;
71303;SDS011;59091;47.446;19.148;2023-06-22T13:03:55;11.35;;;5.60;;
71303;SDS011;59091;47.446;19.148;2023-06-22T13:06:21;8.95;;;6.03;;
71303;SDS011;59091;47.446;19.148;2023-06-22T13:08:47;9.48;;;6.03;;
71303;SDS011;59091;47.446;19.148;2023-06-22T13:11:13;8.73;;;5.70;;
71303;SDS011;59091;47.446;19.148;2023-06-22T13:13:38;11.00;;;6.22;;
71303;SDS011;59091;47.446;19.148;2023-06-22T13:16:04;9.50;;;5.80;;
71303;SDS011;59091;47.446;19.148;2023-06-22T13:18:29;13.77;;;5.70;;
71303;SDS011;59091;47.446;19.148;2023-06-22T13:20:55;12.20;;;5.95;;
71303;SDS011;59091;47.446;19.148;2023-06-22T13:23:21;13.55;;;5.72;;
71303;SDS011;59091;47.446;19.148;2023-06-22T13:25:47;10.80;;;5.60;;
71303;SDS011;59091;47.446;19.148;2023-06-22T13:28:12;11.48;;;5.75;;
71303;SDS011;59091;47.446;19.148;2023-06-22T13:30:41;10.98;;;5.80;;
71303;SDS011;59091;47.446;19.148;2023-06-22T13:33:07;10.57;;;5.82;;
71303;SDS011;59091;47.446;19.148;2023-06-22T13:35:33;14.30;;;6.20;;
71303;SDS011;59091;47.446;19.148;2023-06-22T13:38:00;12.77;;;6.20;;
71303;SDS011;59091;47.446;19.148;2023-06-22T13:40:25;10.63;;;6.20;;
71303;SDS011;59091;47.446;19.148;2023-06-22T13:42:51;8.55;;;5.70;;
71303;SDS011;59091;47.446;19.148;2023-06-22T13:45:17;10.10;;;6.18;;
71303;SDS011;59091;47.446;19.148;2023-06-22T13:47:44;11.00;;;6.03;;
71303;SDS011;59091;47.446;19.148;2023-06-22T13:50:09;10.88;;;6.28;;
71303;SDS011;59091;47.446;19.148;2023-06-22T13:52:35;8.90;;;5.70;;
71303;SDS011;59091;47.446;19.148;2023-06-22T13:55:01;9.63;;;5.85;;
71303;SDS011;59091;47.446;19.148;2023-06-22T13:57:27;10.05;;;6.20;;
71303;SDS011;59091;47.446;19.148;2023-06-22T13:59:52;9.55;;;5.78;;
71303;SDS011;59091;47.446;19.148;2023-06-22T14:02:18;9.05;;;5.70;;
71303;SDS011;59091;47.446;19.148;2023-06-22T14:04:44;10.02;;;6.03;;
71303;SDS011;59091;47.446;19.148;2023-06-22T14:07:09;10.10;;;6.20;;
71303;SDS011;59091;47.446;19.148;2023-06-22T14:09:36;10.77;;;6.00;;
71303;SDS011;59091;47.446;19.148;2023-06-22T14:12:05;13.00;;;5.57;;
71303;SDS011;59091;47.446;19.148;2023-06-22T14:14:31;11.23;;;5.85;;
71303;SDS011;59091;47.446;19.148;2023-06-22T14:16:58;6.78;;;5.55;;
71303;SDS011;59091;47.446;19.148;2023-06-22T14:19:23;11.02;;;6.18;;
71303;SDS011;59091;47.446;19.148;2023-06-22T14:21:49;16.48;;;6.43;;
71303;SDS011;59091;47.446;19.148;2023-06-22T14:24:14;11.52;;;5.57;;
71303;SDS011;59091;47.446;19.148;2023-06-22T14:26:40;13.13;;;6.13;;
71303;SDS011;59091;47.446;19.148;2023-06-22T14:29:05;9.80;;;5.70;;